createdAt,value
2023-03-18T00:02:09.580Z,1.20
2023-03-18T00:04:37.242Z,1.02
2023-03-18T00:07:04.655Z,1.35
2023-03-18T00:09:32.463Z,1.20
2023-03-18T00:12:00.417Z,1.27
2023-03-18T00:14:27.982Z,1.35
2023-03-18T00:16:56.116Z,1.08
2023-03-18T00:19:25.227Z,1.02
2023-03-18T00:21:52.723Z,1.50
2023-03-18T00:24:20.072Z,1.50
2023-03-18T00:26:47.488Z,0.88
2023-03-18T00:29:15.444Z,1.00
2023-03-18T00:31:43.756Z,1.40
2023-03-18T00:34:12.560Z,1.50
2023-03-18T00:36:41.365Z,1.43
2023-03-18T00:39:09.329Z,1.27
2023-03-18T00:41:38.087Z,1.10
2023-03-18T00:44:06.346Z,1.35
2023-03-18T00:46:34.632Z,1.00
2023-03-18T00:49:02.711Z,0.88
2023-03-18T00:51:31.490Z,1.13
2023-03-18T00:54:01.893Z,1.20
2023-03-18T00:56:30.785Z,1.10
2023-03-18T00:58:58.517Z,1.37
2023-03-18T01:01:26.409Z,1.15
2023-03-18T01:03:54.923Z,1.50
2023-03-18T01:06:23.292Z,1.20
2023-03-18T01:08:51.563Z,1.35
2023-03-18T01:11:20.336Z,1.20
2023-03-18T01:13:47.741Z,1.67
2023-03-18T01:16:15.478Z,1.40
2023-03-18T01:18:42.954Z,1.45
2023-03-18T01:21:12.049Z,1.20
2023-03-18T01:23:39.854Z,1.33
2023-03-18T01:26:07.634Z,1.25
2023-03-18T01:28:36.759Z,1.40
2023-03-18T01:31:04.632Z,1.40
2023-03-18T01:33:32.044Z,1.30
2023-03-18T01:36:00.486Z,1.20
2023-03-18T01:38:30.178Z,1.40
2023-03-18T01:40:58.197Z,1.40
2023-03-18T01:43:26.536Z,1.20
2023-03-18T01:45:56.374Z,1.30
2023-03-18T01:48:25.228Z,2.00
2023-03-18T01:50:54.896Z,1.10
2023-03-18T01:55:50.990Z,1.15
2023-03-18T01:58:20.738Z,1.10
2023-03-18T02:03:16.775Z,1.10
2023-03-18T02:05:44.383Z,1.20
2023-03-18T02:08:11.757Z,1.45
2023-03-18T02:10:39.238Z,1.35
2023-03-18T02:13:08.089Z,1.30
2023-03-18T02:15:37.196Z,1.20
2023-03-18T02:18:06.034Z,1.20
2023-03-18T02:20:40.753Z,1.40
2023-03-18T02:23:11.371Z,1.27
2023-03-18T02:25:43.935Z,1.52
2023-03-18T02:28:14.399Z,1.60
2023-03-18T02:30:43.501Z,1.50
2023-03-18T02:33:11.889Z,1.60
2023-03-18T02:35:39.954Z,1.20
2023-03-18T02:38:07.369Z,1.52
2023-03-18T02:40:35.810Z,1.25
2023-03-18T02:43:18.564Z,1.48
2023-03-18T02:45:49.779Z,1.40
2023-03-18T02:48:19.411Z,1.70
2023-03-18T02:50:47.491Z,1.42
2023-03-18T02:53:15.233Z,1.48
2023-03-18T02:55:43.380Z,1.50
2023-03-18T02:58:10.706Z,1.50
2023-03-18T03:00:39.545Z,1.17
2023-03-18T03:03:07.178Z,1.47
2023-03-18T03:05:35.196Z,1.52
2023-03-18T03:08:02.885Z,1.40
2023-03-18T03:10:30.707Z,1.70
2023-03-18T03:12:58.577Z,1.40
2023-03-18T03:15:26.587Z,1.48
2023-03-18T03:17:55.380Z,1.40
2023-03-18T03:20:23.682Z,1.20
2023-03-18T03:22:51.568Z,1.27
2023-03-18T03:25:19.425Z,1.20
2023-03-18T03:27:48.291Z,1.40
2023-03-18T03:30:16.568Z,1.30
2023-03-18T03:32:44.035Z,1.30
2023-03-18T03:35:14.460Z,1.35
2023-03-18T03:37:42.103Z,2.53
2023-03-18T03:40:10.507Z,2.00
2023-03-18T03:42:37.905Z,1.55
2023-03-18T03:45:06.080Z,1.40
2023-03-18T03:47:33.806Z,1.50
2023-03-18T03:50:01.193Z,1.50
2023-03-18T03:52:29.951Z,1.55
2023-03-18T03:54:57.349Z,1.20
2023-03-18T03:57:25.176Z,1.40
2023-03-18T03:59:52.625Z,1.65
2023-03-18T04:02:20.229Z,1.70
2023-03-18T04:04:47.858Z,1.85
2023-03-18T04:07:15.414Z,1.50
2023-03-18T04:09:44.129Z,1.45
2023-03-18T04:12:11.979Z,1.35
2023-03-18T04:14:39.360Z,1.50
2023-03-18T04:17:07.867Z,1.60
2023-03-18T04:19:35.291Z,1.15
2023-03-18T04:22:03.639Z,1.27
2023-03-18T04:24:31.557Z,1.70
2023-03-18T04:27:00.560Z,1.88
2023-03-18T04:29:27.942Z,1.42
2023-03-18T04:31:56.698Z,1.30
2023-03-18T04:34:24.977Z,1.33
2023-03-18T04:36:52.436Z,1.65
2023-03-18T04:39:19.817Z,1.55
2023-03-18T04:41:47.260Z,1.30
2023-03-18T04:44:17.321Z,1.83
2023-03-18T04:46:45.050Z,1.38
2023-03-18T04:49:12.921Z,1.63
2023-03-18T04:51:40.522Z,1.88
2023-03-18T04:54:07.958Z,1.33
2023-03-18T04:56:35.762Z,1.50
2023-03-18T04:59:03.300Z,1.60
2023-03-18T05:01:32.187Z,1.48
2023-03-18T05:03:59.618Z,1.30
2023-03-18T05:06:28.162Z,1.40
2023-03-18T05:08:55.846Z,1.60
2023-03-18T05:11:23.329Z,1.42
2023-03-18T05:13:50.822Z,1.60
2023-03-18T05:16:18.348Z,1.40
2023-03-18T05:18:47.804Z,1.60
2023-03-18T05:21:15.613Z,1.77
2023-03-18T05:23:43.325Z,1.77
2023-03-18T05:26:12.672Z,1.40
2023-03-18T05:28:40.510Z,1.70
2023-03-18T05:31:07.896Z,1.60
2023-03-18T05:33:36.167Z,1.70
2023-03-18T05:36:05.630Z,1.63
2023-03-18T05:38:33.159Z,1.80
2023-03-18T05:41:00.572Z,1.50
2023-03-18T05:43:29.140Z,1.60
2023-03-18T05:45:56.663Z,1.52
2023-03-18T05:48:24.452Z,1.88
2023-03-18T05:50:52.377Z,1.73
2023-03-18T05:53:21.126Z,1.90
2023-03-18T05:55:48.766Z,1.83
2023-03-18T05:58:16.233Z,1.92
2023-03-18T06:00:43.598Z,1.63
2023-03-18T06:03:11.149Z,1.83
2023-03-18T06:05:38.628Z,1.95
2023-03-18T06:08:07.169Z,1.70
2023-03-18T06:10:36.020Z,1.75
2023-03-18T06:13:03.377Z,2.40
2023-03-18T06:15:30.921Z,1.50
2023-03-18T06:17:58.838Z,1.60
2023-03-18T06:20:26.322Z,2.10
2023-03-18T06:22:53.724Z,1.23
2023-03-18T06:25:22.141Z,1.42
2023-03-18T06:27:51.337Z,1.55
2023-03-18T06:30:19.319Z,1.83
2023-03-18T06:32:47.149Z,1.60
2023-03-18T06:35:15.512Z,1.70
2023-03-18T06:37:43.434Z,1.35
2023-03-18T06:40:12.225Z,1.60
2023-03-18T06:42:39.763Z,1.80
2023-03-18T06:45:10.058Z,1.80
2023-03-18T06:47:37.428Z,1.83
2023-03-18T06:50:05.809Z,1.77
2023-03-18T06:52:33.218Z,1.50
2023-03-18T06:55:01.225Z,1.38
2023-03-18T06:57:29.046Z,1.70
2023-03-18T06:59:57.296Z,1.70
2023-03-18T07:02:27.373Z,1.38
2023-03-18T07:04:55.266Z,1.27
2023-03-18T07:07:23.100Z,1.63
2023-03-18T07:09:50.823Z,3.88
2023-03-18T07:12:19.230Z,4.07
2023-03-18T07:14:47.013Z,2.47
2023-03-18T07:17:15.268Z,2.25
2023-03-18T07:19:44.017Z,1.88
2023-03-18T07:22:11.412Z,1.80
2023-03-18T07:24:38.912Z,1.70
2023-03-18T07:27:06.818Z,1.40
2023-03-18T07:29:34.367Z,1.33
2023-03-18T07:32:01.908Z,1.48
2023-03-18T07:34:29.453Z,1.65
2023-03-18T07:36:58.937Z,1.15
2023-03-18T07:39:26.513Z,1.58
2023-03-18T07:41:54.067Z,1.65
2023-03-18T07:44:21.519Z,1.25
2023-03-18T07:46:49.272Z,1.33
2023-03-18T07:49:16.680Z,1.00
2023-03-18T07:51:44.253Z,1.30
2023-03-18T07:54:13.088Z,1.50
2023-03-18T07:56:40.711Z,1.55
2023-03-18T07:59:09.298Z,1.33
2023-03-18T08:01:36.769Z,1.50
2023-03-18T08:04:04.338Z,1.25
2023-03-18T08:06:32.088Z,1.08
2023-03-18T08:09:01.020Z,1.50
2023-03-18T08:11:30.200Z,1.13
2023-03-18T08:13:57.602Z,1.15
2023-03-18T08:16:25.690Z,1.20
2023-03-18T08:18:53.055Z,1.67
2023-03-18T08:21:20.540Z,1.40
2023-03-18T08:23:48.650Z,1.15
2023-03-18T08:26:16.019Z,1.30
2023-03-18T08:28:44.907Z,1.50
2023-03-18T08:31:12.303Z,1.27
2023-03-18T08:33:39.703Z,1.27
2023-03-18T08:36:08.321Z,1.40
2023-03-18T08:38:35.743Z,1.30
2023-03-18T08:41:03.993Z,1.38
2023-03-18T08:43:31.375Z,1.23
2023-03-18T08:46:00.237Z,1.00
2023-03-18T08:48:27.645Z,1.38
2023-03-18T08:50:55.036Z,1.40
2023-03-18T08:53:22.469Z,1.48
2023-03-18T08:55:50.119Z,1.38
2023-03-18T08:58:18.452Z,1.40
2023-03-18T09:00:45.809Z,1.40
2023-03-18T09:03:15.835Z,1.30
2023-03-18T09:05:44.080Z,1.48
2023-03-18T09:08:11.456Z,1.30
2023-03-18T09:10:38.840Z,1.10
2023-03-18T09:13:06.230Z,1.50
2023-03-18T09:15:34.117Z,1.27
2023-03-18T09:18:11.772Z,1.07
2023-03-18T09:20:41.414Z,0.98
2023-03-18T09:23:09.284Z,1.00
2023-03-18T09:25:36.680Z,1.10
2023-03-18T09:28:04.001Z,1.20
2023-03-18T09:30:31.960Z,1.20
2023-03-18T09:32:59.675Z,0.97
2023-03-18T09:35:29.028Z,1.10
2023-03-18T09:37:57.798Z,1.35
2023-03-18T09:40:27.500Z,1.10
2023-03-18T09:43:00.504Z,0.90
2023-03-18T09:45:30.991Z,0.85
2023-03-18T09:48:07.096Z,1.00
2023-03-18T09:50:38.314Z,1.00
2023-03-18T09:53:17.822Z,1.40
2023-03-18T09:55:46.978Z,1.00
2023-03-18T09:58:19.377Z,1.30
2023-03-18T10:00:47.492Z,1.25
2023-03-18T10:03:17.502Z,1.35
2023-03-18T10:05:48.369Z,1.15
2023-03-18T10:08:20.835Z,1.00
2023-03-18T10:10:48.577Z,1.25
2023-03-18T10:13:19.830Z,0.90
2023-03-18T10:15:48.981Z,1.23
2023-03-18T10:18:22.344Z,1.00
2023-03-18T10:20:55.682Z,1.05
2023-03-18T10:23:28.569Z,1.17
2023-03-18T10:25:57.892Z,1.10
2023-03-18T10:28:41.630Z,1.15
2023-03-18T10:31:15.395Z,0.90
2023-03-18T10:33:47.507Z,1.00
2023-03-18T10:36:19.109Z,1.02
2023-03-18T10:38:48.591Z,0.88
2023-03-18T10:41:17.791Z,0.73
2023-03-18T10:43:46.796Z,1.23
2023-03-18T10:46:16.149Z,0.90
2023-03-18T10:48:45.722Z,0.80
2023-03-18T10:51:16.922Z,1.00
2023-03-18T10:53:45.903Z,0.82
2023-03-18T10:56:15.517Z,0.80
2023-03-18T10:58:43.374Z,0.80
2023-03-18T11:01:12.318Z,1.00
2023-03-18T11:03:43.338Z,0.93
2023-03-18T11:06:16.750Z,0.90
2023-03-18T11:08:47.694Z,0.93
2023-03-18T11:11:17.971Z,0.77
2023-03-18T11:13:48.983Z,0.82
2023-03-18T11:16:22.499Z,0.98
2023-03-18T11:18:50.279Z,0.65
2023-03-18T11:21:18.076Z,0.63
2023-03-18T11:23:56.396Z,1.03
2023-03-18T11:26:27.326Z,0.80
2023-03-18T11:28:55.884Z,1.02
2023-03-18T11:33:50.938Z,0.75
2023-03-18T11:36:19.326Z,1.80
2023-03-18T11:38:56.785Z,0.70
2023-03-18T11:41:27.559Z,1.10
2023-03-18T11:43:56.276Z,0.77
2023-03-18T11:46:24.856Z,0.93
2023-03-18T11:48:52.408Z,0.90
2023-03-18T11:51:33.577Z,1.60
2023-03-18T11:54:07.753Z,1.00
2023-03-18T11:56:38.790Z,0.85
2023-03-18T11:59:11.488Z,0.80
2023-03-18T12:01:44.665Z,0.88
2023-03-18T12:04:18.794Z,1.50
2023-03-18T12:06:52.307Z,0.80
2023-03-18T12:09:25.005Z,0.98
2023-03-18T12:12:08.301Z,1.00
2023-03-18T12:14:38.896Z,0.60
2023-03-18T12:17:13.123Z,0.90
2023-03-18T12:19:58.843Z,0.70
2023-03-18T12:22:41.207Z,0.70
2023-03-18T12:25:13.036Z,0.80
2023-03-18T12:27:46.285Z,0.80
2023-03-18T12:30:38.294Z,0.88
2023-03-18T12:33:10.956Z,0.70
2023-03-18T12:35:42.797Z,0.63
2023-03-18T12:38:35.697Z,0.73
2023-03-18T12:41:06.609Z,0.77
2023-03-18T12:43:40.106Z,0.70
2023-03-18T12:46:11.902Z,1.00
2023-03-18T12:48:44.928Z,0.75
2023-03-18T12:51:15.633Z,0.90
2023-03-18T12:53:45.450Z,0.82
2023-03-18T12:56:14.831Z,1.00
2023-03-18T13:01:18.097Z,0.90
2023-03-18T13:03:47.703Z,0.65
2023-03-18T13:06:18.721Z,0.68
2023-03-18T13:09:04.314Z,0.88
2023-03-18T13:11:46.653Z,0.80
2023-03-18T13:14:17.631Z,0.57
2023-03-18T13:16:47.300Z,0.75
2023-03-18T13:19:14.760Z,0.95
2023-03-18T13:21:44.013Z,0.93
2023-03-18T13:24:26.485Z,0.68
2023-03-18T13:27:15.361Z,0.70
2023-03-18T13:29:47.531Z,0.80
2023-03-18T13:32:26.056Z,0.98
2023-03-18T13:35:12.735Z,1.53
2023-03-18T13:38:04.864Z,1.38
2023-03-18T13:40:38.493Z,1.00
2023-03-18T13:43:06.356Z,1.00
2023-03-18T13:45:34.717Z,1.00
2023-03-18T13:48:07.471Z,1.10
2023-03-18T13:50:35.775Z,0.85
2023-03-18T13:53:03.782Z,0.90
2023-03-18T13:55:34.056Z,1.10
2023-03-18T13:58:20.566Z,1.10
2023-03-18T14:01:03.080Z,1.40
2023-03-18T14:03:33.495Z,1.02
2023-03-18T14:06:15.861Z,1.25
2023-03-18T14:08:51.325Z,4.35
2023-03-18T14:11:50.185Z,6.47
2023-03-18T14:14:36.205Z,4.03
2023-03-18T14:17:05.395Z,2.42
2023-03-18T14:19:34.210Z,1.08
2023-03-18T14:22:08.810Z,5.45
2023-03-18T14:24:38.263Z,1.30
2023-03-18T14:27:17.498Z,1.30
2023-03-18T14:29:46.879Z,1.17
2023-03-18T14:34:56.383Z,1.40
2023-03-18T14:37:29.286Z,0.70
2023-03-18T14:40:05.791Z,1.10
2023-03-18T14:42:40.111Z,1.13
2023-03-18T14:45:13.702Z,0.93
2023-03-18T14:47:44.310Z,1.02
2023-03-18T14:50:18.169Z,1.23
2023-03-18T14:52:51.625Z,1.88
2023-03-18T14:55:19.698Z,1.30
2023-03-18T14:57:47.314Z,1.17
2023-03-18T15:00:18.556Z,0.90
2023-03-18T15:02:46.519Z,1.27
2023-03-18T15:05:16.381Z,1.02
2023-03-18T15:07:47.240Z,0.85
2023-03-18T15:10:17.191Z,9.77
2023-03-18T15:12:44.602Z,1.00
2023-03-18T15:15:16.263Z,1.25
2023-03-18T15:17:46.674Z,0.80
2023-03-18T15:20:14.568Z,1.00
2023-03-18T15:22:43.465Z,1.00
2023-03-18T15:25:17.780Z,0.98
2023-03-18T15:27:45.770Z,0.73
2023-03-18T15:30:24.492Z,0.93
2023-03-18T15:32:51.947Z,0.95
2023-03-18T15:35:22.050Z,0.88
2023-03-18T15:38:06.955Z,0.80
2023-03-18T15:40:46.183Z,1.60
2023-03-18T15:43:18.409Z,1.10
2023-03-18T15:45:46.978Z,1.70
2023-03-18T15:48:23.346Z,2.33
2023-03-18T15:50:54.651Z,0.90
2023-03-18T15:53:23.416Z,1.10
2023-03-18T15:55:52.854Z,1.90
2023-03-18T16:00:47.739Z,1.20
2023-03-18T16:03:18.537Z,1.08
2023-03-18T16:05:48.543Z,1.50
2023-03-18T16:08:16.624Z,1.55
2023-03-18T16:10:44.722Z,1.20
2023-03-18T16:13:18.206Z,1.40
2023-03-18T16:15:47.473Z,1.17
2023-03-18T16:18:14.878Z,1.60
2023-03-18T16:20:45.485Z,1.63
2023-03-18T16:23:15.204Z,1.65
2023-03-18T16:25:43.823Z,1.63
2023-03-18T16:28:18.046Z,3.50
2023-03-18T16:30:46.354Z,1.30
2023-03-18T16:33:14.587Z,1.30
2023-03-18T16:35:43.166Z,1.40
2023-03-18T16:38:13.127Z,1.37
2023-03-18T16:40:40.756Z,1.80
2023-03-18T16:43:12.720Z,1.52
2023-03-18T16:45:42.881Z,1.95
2023-03-18T16:48:13.964Z,1.35
2023-03-18T16:50:42.649Z,1.20
2023-03-18T16:53:17.310Z,2.10
2023-03-18T16:55:45.598Z,2.22
2023-03-18T16:58:17.251Z,2.17
2023-03-18T17:00:48.175Z,2.30
2023-03-18T17:03:20.598Z,3.85
2023-03-18T17:05:53.168Z,5.53
2023-03-18T17:08:21.516Z,6.07
2023-03-18T17:10:51.499Z,3.70
2023-03-18T17:13:23.326Z,2.28
2023-03-18T17:15:52.383Z,2.40
2023-03-18T17:18:20.762Z,2.00
2023-03-18T17:20:49.711Z,9.88
2023-03-18T17:23:18.961Z,7.05
2023-03-18T17:25:51.754Z,4.82
2023-03-18T17:28:22.461Z,4.60
2023-03-18T17:30:52.743Z,4.53
2023-03-18T17:33:25.851Z,4.30
2023-03-18T17:35:56.531Z,3.55
2023-03-18T17:38:24.406Z,4.00
2023-03-18T17:40:51.896Z,6.57
2023-03-18T17:43:22.121Z,7.30
2023-03-18T17:45:49.569Z,6.28
2023-03-18T17:48:19.989Z,6.18
2023-03-18T17:50:50.012Z,4.55
2023-03-18T17:53:22.434Z,4.80
2023-03-18T17:55:53.389Z,4.68
2023-03-18T17:58:22.045Z,5.18
2023-03-18T18:00:53.922Z,4.63
2023-03-18T18:03:26.690Z,4.70
2023-03-18T18:05:56.316Z,4.55
2023-03-18T18:10:52.746Z,10.95
2023-03-18T18:13:22.655Z,7.80
2023-03-18T18:15:50.897Z,7.95
2023-03-18T18:18:24.655Z,6.72
2023-03-18T18:20:57.794Z,7.00
2023-03-18T18:23:29.942Z,8.48
2023-03-18T18:26:00.737Z,12.68
2023-03-18T18:28:32.979Z,8.48
2023-03-18T18:31:02.993Z,8.75
2023-03-18T18:33:30.932Z,8.35
2023-03-18T18:35:59.952Z,7.18
2023-03-18T18:38:27.552Z,6.78
2023-03-18T18:40:57.270Z,6.75
2023-03-18T18:43:27.851Z,7.40
2023-03-18T18:45:56.119Z,7.32
2023-03-18T18:48:25.413Z,8.38
2023-03-18T18:50:53.337Z,11.68
2023-03-18T18:53:24.535Z,17.85
2023-03-18T18:55:52.820Z,16.13
2023-03-18T18:58:21.991Z,11.63
2023-03-18T19:00:50.490Z,11.52
2023-03-18T19:03:19.218Z,15.05
2023-03-18T19:05:47.255Z,16.63
2023-03-18T19:08:22.570Z,17.38
2023-03-18T19:10:51.721Z,17.98
2023-03-18T19:13:19.165Z,18.73
2023-03-18T19:15:48.717Z,16.52
2023-03-18T19:18:18.704Z,15.65
2023-03-18T19:20:46.291Z,12.07
2023-03-18T19:23:15.650Z,10.50
2023-03-18T19:25:43.300Z,10.80
2023-03-18T19:28:14.181Z,10.48
2023-03-18T19:30:44.623Z,8.95
2023-03-18T19:33:14.766Z,9.77
2023-03-18T19:35:42.246Z,8.70
2023-03-18T19:38:11.496Z,7.35
2023-03-18T19:40:38.977Z,6.75
2023-03-18T19:43:10.746Z,8.50
2023-03-18T19:45:41.002Z,6.90
2023-03-18T19:48:09.585Z,7.18
2023-03-18T19:50:36.923Z,6.68
2023-03-18T19:53:10.577Z,6.18
2023-03-18T19:55:38.242Z,6.00
2023-03-18T19:58:05.758Z,5.97
2023-03-18T20:00:33.849Z,5.93
2023-03-18T20:03:02.718Z,6.22
2023-03-18T20:05:30.116Z,6.23
2023-03-18T20:07:57.470Z,5.80
2023-03-18T20:10:24.860Z,5.70
2023-03-18T20:12:52.258Z,5.85
2023-03-18T20:15:21.105Z,6.13
2023-03-18T20:17:49.387Z,5.63
2023-03-18T20:20:19.199Z,5.40
2023-03-18T20:22:48.158Z,5.18
2023-03-18T20:25:20.723Z,5.15
2023-03-18T20:27:48.171Z,4.70
2023-03-18T20:30:23.172Z,4.53
2023-03-18T20:32:50.841Z,4.47
2023-03-18T20:35:19.757Z,4.10
2023-03-18T20:37:47.358Z,3.80
2023-03-18T20:40:20.152Z,4.22
2023-03-18T20:42:47.590Z,4.57
2023-03-18T20:45:15.787Z,4.40
2023-03-18T20:47:43.301Z,4.10
2023-03-18T20:50:12.688Z,4.43
2023-03-18T20:52:44.046Z,4.78
2023-03-18T20:55:21.991Z,4.18
2023-03-18T20:57:49.660Z,4.45
2023-03-18T21:00:18.851Z,4.45
2023-03-18T21:02:47.094Z,4.32
2023-03-18T21:05:15.106Z,4.65
2023-03-18T21:07:44.372Z,3.80
2023-03-18T21:10:16.554Z,4.32
2023-03-18T21:12:44.524Z,4.13
2023-03-18T21:15:16.332Z,3.72
2023-03-18T21:17:45.372Z,3.65
2023-03-18T21:20:22.035Z,4.00
2023-03-18T21:22:51.742Z,4.15
2023-03-18T21:25:21.038Z,3.60
2023-03-18T21:27:48.413Z,4.47
2023-03-18T21:30:16.488Z,4.75
2023-03-18T21:32:44.885Z,4.70
2023-03-18T21:35:17.029Z,4.15
2023-03-18T21:37:44.400Z,4.45
2023-03-18T21:40:16.415Z,3.47
2023-03-18T21:42:44.265Z,3.70
2023-03-18T21:45:12.493Z,3.45
2023-03-18T21:47:39.870Z,4.18
2023-03-18T21:50:07.848Z,3.97
2023-03-18T21:52:36.129Z,3.83
2023-03-18T21:55:04.110Z,3.70
2023-03-18T21:57:33.055Z,3.90
2023-03-18T22:00:00.429Z,3.00
2023-03-18T22:02:29.381Z,4.13
2023-03-18T22:04:57.877Z,3.75
2023-03-18T22:07:25.603Z,3.80
2023-03-18T22:09:52.989Z,4.63
2023-03-18T22:12:22.179Z,3.90
2023-03-18T22:14:51.005Z,3.88
2023-03-18T22:17:20.481Z,4.60
2023-03-18T22:19:47.905Z,4.18
2023-03-18T22:22:16.327Z,4.28
2023-03-18T22:24:43.970Z,4.07
2023-03-18T22:27:17.450Z,3.63
2023-03-18T22:29:44.842Z,3.88
2023-03-18T22:32:22.619Z,3.83
2023-03-18T22:34:50.023Z,4.00
2023-03-18T22:37:20.494Z,3.30
2023-03-18T22:39:47.937Z,3.15
2023-03-18T22:42:16.239Z,3.10
2023-03-18T22:44:43.622Z,3.40
2023-03-18T22:47:13.785Z,4.97
2023-03-18T22:49:42.566Z,2.90
2023-03-18T22:52:14.494Z,2.40
2023-03-18T22:54:44.972Z,2.45
2023-03-18T22:57:17.409Z,2.75
2023-03-18T22:59:44.859Z,2.25
2023-03-18T23:02:16.892Z,3.03
2023-03-18T23:04:45.688Z,3.05
2023-03-18T23:07:21.477Z,2.83
2023-03-18T23:09:56.494Z,2.92
2023-03-18T23:12:25.746Z,3.45
2023-03-18T23:14:53.871Z,3.30
2023-03-18T23:17:22.291Z,2.95
2023-03-18T23:19:51.281Z,2.83
2023-03-18T23:22:21.833Z,2.72
2023-03-18T23:24:49.251Z,2.30
2023-03-18T23:27:16.601Z,2.55
2023-03-18T23:29:44.313Z,2.30
2023-03-18T23:32:11.861Z,2.10
2023-03-18T23:34:39.239Z,2.20
2023-03-18T23:37:08.051Z,2.30
2023-03-18T23:39:35.470Z,2.70
2023-03-18T23:42:02.981Z,2.55
2023-03-18T23:44:30.335Z,2.85
2023-03-18T23:46:57.767Z,2.70
2023-03-18T23:49:28.189Z,2.25
2023-03-18T23:51:55.521Z,2.60
2023-03-18T23:54:24.315Z,2.88
2023-03-18T23:56:51.765Z,2.40
2023-03-18T23:59:19.155Z,2.70
